Time;durP1;ratioP1;P1;durP2;ratioP2;P2;SDS_P1;SDS_P2;PMS_P1;PMS_P2;Temp;Humidity;BMP_temperature;BMP_pressure;BME280_temperature;BME280_humidity;BME280_pressure;Samples;Min_cycle;Max_cycle;Signal;HPM_P1;HPM_P2
2023/01/30 00:02:15;;;;;;;35.38;25.85;;;6.60;99.90;;;;;;4977573;28;20193;-52
2023/01/30 00:04:40;;;;;;;37.70;27.77;;;6.60;99.90;;;;;;4977438;28;20185;-52
2023/01/30 00:07:06;;;;;;;33.08;26.80;;;6.50;99.90;;;;;;4977284;28;20198;-50
2023/01/30 00:09:31;;;;;;;38.63;28.10;;;6.60;99.90;;;;;;4977358;28;20181;-51
2023/01/30 00:11:57;;;;;;;37.72;27.23;;;6.70;99.90;;;;;;4977471;28;20178;-51
2023/01/30 00:14:23;;;;;;;34.63;25.08;;;6.70;99.90;;;;;;4977481;28;20185;-53
2023/01/30 00:16:48;;;;;;;37.55;26.00;;;6.60;99.90;;;;;;4977485;28;20196;-50
2023/01/30 00:19:14;;;;;;;32.78;24.95;;;6.60;99.90;;;;;;4977165;28;20253;-52
2023/01/30 00:21:40;;;;;;;31.15;23.25;;;6.60;99.90;;;;;;4976619;28;20204;-51
2023/01/30 00:24:06;;;;;;;33.17;22.98;;;6.60;99.90;;;;;;4976445;28;20256;-51
2023/01/30 00:26:31;;;;;;;32.40;22.67;;;6.50;99.90;;;;;;4977326;28;20185;-54
2023/01/30 00:28:57;;;;;;;30.90;22.95;;;6.60;99.90;;;;;;4977262;28;20543;-52
2023/01/30 00:31:22;;;;;;;30.08;21.55;;;6.60;99.90;;;;;;4977017;28;20178;-51
2023/01/30 00:33:48;;;;;;;31.42;22.90;;;6.60;99.90;;;;;;4976903;28;20181;-50
2023/01/30 00:36:14;;;;;;;29.27;22.67;;;6.60;99.90;;;;;;4976878;28;20184;-52
2023/01/30 00:38:39;;;;;;;30.20;23.08;;;6.70;99.90;;;;;;4976709;28;20261;-51
2023/01/30 00:41:05;;;;;;;29.60;22.35;;;6.60;99.90;;;;;;4976636;28;20248;-53
2023/01/30 00:49:20;;;;;;;26.50;20.15;;;6.70;99.90;;;;;;4976868;28;20176;-53
2023/01/30 00:51:46;;;;;;;29.05;19.90;;;6.70;99.90;;;;;;4976810;28;20577;-50
2023/01/30 00:54:12;;;;;;;30.65;21.20;;;6.70;99.90;;;;;;4976672;28;20208;-53
2023/01/30 00:56:38;;;;;;;27.63;20.48;;;6.70;99.90;;;;;;4976383;28;20643;-50
2023/01/30 00:59:03;;;;;;;30.60;21.23;;;6.80;99.90;;;;;;4976424;28;20256;-52
2023/01/30 01:01:29;;;;;;;27.08;20.48;;;6.80;99.90;;;;;;4976242;28;20212;-53
2023/01/30 01:03:55;;;;;;;25.63;20.40;;;6.80;99.90;;;;;;4976223;28;20213;-51
2023/01/30 01:06:20;;;;;;;27.70;20.55;;;6.80;99.90;;;;;;4976255;28;20178;-51
2023/01/30 01:08:46;;;;;;;26.48;21.10;;;6.80;99.90;;;;;;4976454;28;20179;-50
2023/01/30 01:11:22;;;;;;;27.40;21.33;;;6.80;99.90;;;;;;4976323;28;20269;-50
2023/01/30 01:13:49;;;;;;;25.00;20.00;;;6.90;99.90;;;;;;4976132;28;20243;-51
2023/01/30 01:16:15;;;;;;;23.83;19.75;;;6.90;99.90;;;;;;4975944;28;20240;-51
2023/01/30 01:18:41;;;;;;;25.67;18.63;;;6.80;99.90;;;;;;4976230;28;20534;-53
2023/01/30 01:21:06;;;;;;;23.70;19.00;;;6.80;99.90;;;;;;4975952;28;20736;-51
2023/01/30 01:23:32;;;;;;;23.92;18.13;;;6.70;99.90;;;;;;4976012;28;20213;-51
2023/01/30 01:26:01;;;;;;;25.40;18.70;;;6.80;99.90;;;;;;4976291;28;20182;-52
2023/01/30 01:28:26;;;;;;;23.70;17.92;;;6.90;99.90;;;;;;4975895;28;20174;-51
2023/01/30 01:30:52;;;;;;;23.52;18.10;;;6.90;99.90;;;;;;4976076;28;20177;-52
2023/01/30 01:33:18;;;;;;;23.05;18.00;;;7.00;99.90;;;;;;4975812;28;20269;-53
2023/01/30 01:35:43;;;;;;;22.95;18.33;;;7.00;99.90;;;;;;4975897;28;20173;-53
2023/01/30 01:38:09;;;;;;;25.02;17.83;;;6.90;99.90;;;;;;4974558;28;20687;-52
2023/01/30 01:43:24;;;;;;;25.38;17.17;;;7.00;99.90;;;;;;4975781;28;20201;-52
2023/01/30 01:46:03;;;;;;;20.55;17.08;;;7.10;99.90;;;;;;4976429;28;20192;-53
2023/01/30 01:48:46;;;;;;;23.40;18.27;;;7.10;99.90;;;;;;4975836;28;20240;-52
2023/01/30 01:51:19;;;;;;;26.50;17.20;;;7.10;99.90;;;;;;4975439;28;20240;-52
2023/01/30 01:53:54;;;;;;;22.92;17.75;;;7.00;99.90;;;;;;4975324;28;20196;-52
2023/01/30 01:56:20;;;;;;;21.80;16.77;;;7.00;99.90;;;;;;4975563;28;20173;-55
2023/01/30 01:58:59;;;;;;;20.45;16.45;;;7.00;99.90;;;;;;4975435;28;20166;-53
2023/01/30 02:01:25;;;;;;;21.73;16.77;;;7.00;99.90;;;;;;4975266;28;20206;-54
2023/01/30 02:03:57;;;;;;;22.00;17.58;;;7.00;99.90;;;;;;4975560;28;20320;-53
2023/01/30 02:06:24;;;;;;;22.65;16.65;;;7.10;99.90;;;;;;4975155;28;20173;-54
2023/01/30 02:08:56;;;;;;;21.50;16.73;;;7.00;99.90;;;;;;4975732;28;20185;-53
2023/01/30 02:11:30;;;;;;;20.65;16.42;;;7.00;99.90;;;;;;4975544;28;20173;-54
2023/01/30 02:13:59;;;;;;;20.13;15.27;;;7.00;99.90;;;;;;4975187;28;20299;-53
2023/01/30 02:16:24;;;;;;;21.45;16.75;;;7.10;99.90;;;;;;4974915;28;20181;-51
2023/01/30 02:18:51;;;;;;;20.42;15.38;;;7.00;99.90;;;;;;4974993;28;20177;-52
2023/01/30 02:21:44;;;;;;;21.63;15.65;;;7.00;99.90;;;;;;4974798;28;20209;-53
2023/01/30 02:24:44;;;;;;;20.33;13.77;;;6.90;99.90;;;;;;4975073;28;20189;-54
2023/01/30 02:27:16;;;;;;;18.33;15.57;;;7.00;99.90;;;;;;4974966;28;20174;-53
2023/01/30 02:30:24;;;;;;;19.20;13.63;;;6.90;99.90;;;;;;4974840;28;20181;-53
2023/01/30 02:33:02;;;;;;;18.05;14.45;;;6.90;99.90;;;;;;4974892;28;20169;-52
2023/01/30 02:35:48;;;;;;;18.65;13.75;;;6.90;99.90;;;;;;4974752;28;20201;-53
2023/01/30 02:38:40;;;;;;;20.17;13.20;;;7.00;99.90;;;;;;4974941;28;20207;-50
2023/01/30 02:41:26;;;;;;;20.48;12.85;;;7.10;99.90;;;;;;4973443;28;20209;-50
2023/01/30 02:44:16;;;;;;;16.33;12.68;;;7.10;99.90;;;;;;4974666;28;20196;-51
2023/01/30 02:47:00;;;;;;;18.13;12.95;;;7.10;99.90;;;;;;4974385;28;20642;-50
2023/01/30 02:49:40;;;;;;;16.52;12.18;;;7.00;99.90;;;;;;4974928;28;20165;-51
2023/01/30 02:52:09;;;;;;;18.75;12.45;;;7.20;99.90;;;;;;4974484;28;20169;-53
2023/01/30 02:54:35;;;;;;;17.42;12.57;;;7.10;99.90;;;;;;4974453;28;20220;-51
2023/01/30 02:57:00;;;;;;;16.80;11.65;;;7.20;99.90;;;;;;4974680;28;20210;-52
2023/01/30 02:59:29;;;;;;;18.00;11.65;;;7.30;99.90;;;;;;4974488;28;20697;-52
2023/01/30 03:02:04;;;;;;;15.48;11.55;;;7.20;99.90;;;;;;4974675;28;20177;-53
2023/01/30 03:05:03;;;;;;;14.20;11.35;;;7.20;99.90;;;;;;4974544;28;20269;-51
2023/01/30 03:07:56;;;;;;;20.00;11.00;;;7.20;99.90;;;;;;4974907;28;20232;-53
2023/01/30 03:10:43;;;;;;;17.70;11.15;;;7.20;99.90;;;;;;4974741;28;20183;-49
2023/01/30 03:13:25;;;;;;;14.15;10.35;;;7.30;99.90;;;;;;4974449;28;20262;-52
2023/01/30 03:16:02;;;;;;;13.48;10.13;;;7.20;99.90;;;;;;4974424;28;20177;-53
2023/01/30 03:18:28;;;;;;;19.10;10.50;;;7.30;99.90;;;;;;4974578;28;20603;-54
2023/01/30 03:20:54;;;;;;;18.55;12.40;;;7.30;99.90;;;;;;4974217;28;20260;-51
2023/01/30 03:23:19;;;;;;;15.82;11.40;;;7.30;99.90;;;;;;4974007;28;20195;-52
2023/01/30 03:25:47;;;;;;;17.90;11.43;;;7.30;99.90;;;;;;4974451;28;20217;-53
2023/01/30 03:28:17;;;;;;;15.55;11.73;;;7.30;99.90;;;;;;4974333;28;20232;-53
2023/01/30 03:30:43;;;;;;;17.73;11.48;;;7.40;99.90;;;;;;4974323;28;20182;-54
2023/01/30 03:33:09;;;;;;;18.67;13.05;;;7.30;99.90;;;;;;5005417;28;20232;-53
2023/01/30 03:35:35;;;;;;;16.85;11.13;;;7.20;99.90;;;;;;4974262;28;20240;-51
2023/01/30 03:38:01;;;;;;;16.42;11.98;;;7.20;99.90;;;;;;4974111;28;20575;-50
2023/01/30 03:40:26;;;;;;;16.90;12.35;;;7.30;99.90;;;;;;4974232;28;20718;-58
2023/01/30 03:42:52;;;;;;;17.25;11.60;;;7.20;99.90;;;;;;4974481;28;20537;-55
2023/01/30 03:45:18;;;;;;;18.95;11.88;;;7.20;99.90;;;;;;4974181;28;20181;-50
2023/01/30 03:47:43;;;;;;;16.75;11.65;;;7.20;99.90;;;;;;4974089;28;20188;-53
2023/01/30 03:50:09;;;;;;;16.20;10.88;;;7.20;99.90;;;;;;4974062;28;20189;-53
2023/01/30 03:52:36;;;;;;;15.18;10.80;;;7.30;99.90;;;;;;4973926;28;20181;-53
2023/01/30 03:55:02;;;;;;;15.45;10.63;;;7.30;99.90;;;;;;4974223;28;20171;-53
2023/01/30 03:57:27;;;;;;;17.73;10.43;;;7.30;99.90;;;;;;4974827;28;20235;-51
2023/01/30 03:59:53;;;;;;;13.02;10.30;;;7.30;99.90;;;;;;4977632;28;20597;-50
2023/01/30 04:02:21;;;;;;;15.45;10.13;;;7.30;99.90;;;;;;4977452;28;20188;-50
2023/01/30 04:04:48;;;;;;;17.48;10.50;;;7.30;99.90;;;;;;4977397;28;20223;-51
2023/01/30 04:07:14;;;;;;;15.32;9.73;;;7.30;99.90;;;;;;4977484;28;20177;-52
2023/01/30 04:09:40;;;;;;;13.43;11.48;;;7.30;99.90;;;;;;4977579;28;20588;-51
2023/01/30 04:12:06;;;;;;;14.55;10.52;;;7.30;99.90;;;;;;4977698;28;20528;-53
2023/01/30 04:14:32;;;;;;;14.05;10.95;;;7.40;99.90;;;;;;4977332;28;20665;-55
2023/01/30 04:16:57;;;;;;;12.85;9.48;;;7.30;99.90;;;;;;4977329;28;20181;-51
2023/01/30 04:19:23;;;;;;;13.80;11.10;;;7.30;99.90;;;;;;4977132;28;20174;-53
2023/01/30 04:21:48;;;;;;;19.25;11.38;;;7.40;99.90;;;;;;4977106;28;20182;-51
2023/01/30 04:24:14;;;;;;;15.52;9.45;;;7.50;99.90;;;;;;4977147;28;20194;-50
2023/01/30 04:26:40;;;;;;;15.30;9.43;;;7.50;99.90;;;;;;4977158;28;20178;-54
2023/01/30 04:29:05;;;;;;;12.82;10.57;;;7.50;99.90;;;;;;4977215;28;20662;-54
2023/01/30 04:31:31;;;;;;;20.23;9.98;;;7.60;99.90;;;;;;4977051;28;20722;-54
2023/01/30 04:33:57;;;;;;;14.45;11.18;;;7.60;99.90;;;;;;4977166;28;20182;-51
2023/01/30 04:36:23;;;;;;;15.63;11.60;;;7.60;99.90;;;;;;4976847;28;20224;-51
2023/01/30 04:38:48;;;;;;;18.52;10.95;;;7.60;99.90;;;;;;4977026;28;20268;-54
2023/01/30 04:41:14;;;;;;;14.07;9.27;;;7.60;99.90;;;;;;4976880;28;20356;-52
2023/01/30 04:43:40;;;;;;;16.92;9.20;;;7.60;99.90;;;;;;4976984;28;20644;-52
2023/01/30 04:46:05;;;;;;;15.43;9.25;;;7.60;99.90;;;;;;4976761;28;20623;-53
2023/01/30 04:48:31;;;;;;;17.15;8.18;;;7.60;99.90;;;;;;4976953;28;20188;-54
2023/01/30 04:50:57;;;;;;;15.15;9.35;;;7.60;99.90;;;;;;4976805;28;20276;-53
2023/01/30 04:53:24;;;;;;;13.43;8.23;;;7.60;99.90;;;;;;4976750;28;20169;-52
2023/01/30 04:55:50;;;;;;;13.57;8.30;;;7.60;99.90;;;;;;4976689;28;20189;-53
2023/01/30 04:58:18;;;;;;;11.00;7.72;;;7.70;99.90;;;;;;4976552;28;20590;-54
2023/01/30 05:00:44;;;;;;;9.70;7.57;;;7.80;99.90;;;;;;4976376;28;20706;-55
2023/01/30 05:03:09;;;;;;;11.60;8.45;;;7.70;99.90;;;;;;4976276;28;20182;-51
2023/01/30 05:05:35;;;;;;;12.95;7.72;;;7.60;99.90;;;;;;4976427;28;20210;-52
2023/01/30 05:08:01;;;;;;;14.48;7.57;;;7.70;99.90;;;;;;4976213;28;20174;-52
2023/01/30 05:10:27;;;;;;;12.30;7.40;;;7.80;99.90;;;;;;4976514;28;20209;-52
2023/01/30 05:12:53;;;;;;;13.55;7.65;;;7.80;99.90;;;;;;4976353;28;20202;-53
2023/01/30 05:15:18;;;;;;;9.95;7.15;;;7.80;99.90;;;;;;4976368;28;20181;-53
2023/01/30 05:17:44;;;;;;;8.60;6.63;;;7.80;99.90;;;;;;4976243;28;20178;-53
2023/01/30 05:20:11;;;;;;;10.95;6.15;;;7.80;99.90;;;;;;4975912;28;20202;-52
2023/01/30 05:22:37;;;;;;;8.68;5.95;;;7.90;99.90;;;;;;4976320;28;20182;-53
2023/01/30 05:25:03;;;;;;;9.60;6.03;;;7.90;99.90;;;;;;4975832;28;20291;-52
2023/01/30 05:27:28;;;;;;;10.02;6.18;;;7.90;99.90;;;;;;4976098;28;20178;-53
2023/01/30 05:29:54;;;;;;;11.50;6.20;;;7.90;99.90;;;;;;4975937;28;20193;-54
2023/01/30 05:32:20;;;;;;;10.63;6.80;;;8.00;99.90;;;;;;4975971;28;20528;-54
2023/01/30 05:34:48;;;;;;;11.13;6.63;;;8.10;99.90;;;;;;4975928;28;20519;-51
2023/01/30 05:37:13;;;;;;;12.68;7.38;;;8.10;99.90;;;;;;4976000;28;20194;-53
2023/01/30 05:39:39;;;;;;;11.85;7.32;;;8.10;99.90;;;;;;4975636;28;20177;-50
2023/01/30 05:42:05;;;;;;;12.23;8.20;;;8.20;99.90;;;;;;4975848;28;20326;-51
2023/01/30 05:44:31;;;;;;;12.82;8.70;;;8.10;99.90;;;;;;4975613;28;20240;-50
2023/01/30 05:46:56;;;;;;;11.57;8.02;;;8.20;99.90;;;;;;4975608;28;20209;-50
2023/01/30 05:49:22;;;;;;;17.30;8.43;;;8.20;99.90;;;;;;4975704;28;20209;-50
2023/01/30 05:51:48;;;;;;;16.55;9.05;;;8.20;99.90;;;;;;4975689;28;20266;-53
2023/01/30 05:54:14;;;;;;;13.00;8.48;;;8.20;99.90;;;;;;4975627;28;20623;-55
2023/01/30 05:56:39;;;;;;;14.43;7.75;;;8.20;99.90;;;;;;4975587;28;20232;-59
2023/01/30 05:59:05;;;;;;;13.88;9.32;;;8.20;99.90;;;;;;4975515;28;20174;-53
2023/01/30 06:01:31;;;;;;;16.23;9.18;;;8.20;99.90;;;;;;4975288;28;20219;-54
2023/01/30 06:03:57;;;;;;;19.30;9.23;;;8.30;99.90;;;;;;4975098;28;20179;-53
2023/01/30 06:06:24;;;;;;;15.57;10.05;;;8.30;99.90;;;;;;4975389;28;20527;-55
2023/01/30 06:08:54;;;;;;;13.32;9.90;;;8.40;99.90;;;;;;4975326;28;20166;-52
2023/01/30 06:11:20;;;;;;;18.52;10.48;;;8.40;99.90;;;;;;4975435;28;20174;-54
2023/01/30 06:13:46;;;;;;;20.60;11.00;;;8.40;99.90;;;;;;4975111;28;20178;-53
2023/01/30 06:16:13;;;;;;;18.88;10.25;;;8.30;99.90;;;;;;4973917;28;20657;-54
2023/01/30 06:18:39;;;;;;;16.23;9.05;;;8.30;99.90;;;;;;4975049;28;20687;-52
2023/01/30 06:21:06;;;;;;;15.10;7.72;;;8.30;99.90;;;;;;4974391;28;20292;-52
2023/01/30 06:23:32;;;;;;;16.25;8.38;;;8.40;99.90;;;;;;4974889;28;20263;-54
2023/01/30 06:25:58;;;;;;;14.40;7.13;;;8.40;99.90;;;;;;4975070;28;20181;-53
2023/01/30 06:28:24;;;;;;;17.33;7.30;;;8.50;99.90;;;;;;4973960;28;20178;-54
2023/01/30 06:30:50;;;;;;;16.05;6.30;;;8.50;99.90;;;;;;4974862;28;20264;-53
2023/01/30 06:33:17;;;;;;;13.80;6.32;;;8.50;99.90;;;;;;4974705;28;20606;-53
2023/01/30 06:35:43;;;;;;;13.90;6.75;;;8.50;99.90;;;;;;4974923;28;20204;-52
2023/01/30 06:38:12;;;;;;;16.60;6.32;;;8.50;99.90;;;;;;4974892;28;20185;-53
2023/01/30 06:40:38;;;;;;;14.73;6.10;;;8.40;99.90;;;;;;4974679;28;20247;-54
2023/01/30 06:43:03;;;;;;;15.73;5.60;;;8.40;99.90;;;;;;4974681;28;20272;-54
2023/01/30 06:45:29;;;;;;;15.38;5.82;;;8.30;99.90;;;;;;4975019;28;20182;-53
2023/01/30 06:47:55;;;;;;;14.70;5.55;;;8.30;99.90;;;;;;4974532;28;20254;-51
2023/01/30 06:50:26;;;;;;;15.43;5.93;;;8.30;99.90;;;;;;4974685;28;20280;-52
2023/01/30 06:52:53;;;;;;;16.13;5.40;;;8.30;99.90;;;;;;4974940;28;20177;-54
2023/01/30 06:55:21;;;;;;;15.45;5.97;;;8.20;99.90;;;;;;4974618;28;20182;-54
2023/01/30 06:57:47;;;;;;;16.55;6.03;;;8.30;99.90;;;;;;4974774;28;20188;-51
2023/01/30 07:00:18;;;;;;;15.32;4.95;;;8.40;99.90;;;;;;4974263;28;20214;-52
2023/01/30 07:02:44;;;;;;;16.75;5.40;;;8.40;99.90;;;;;;4974454;28;20702;-53
2023/01/30 07:05:10;;;;;;;14.57;4.93;;;8.40;99.90;;;;;;4974426;28;20174;-54
2023/01/30 07:07:37;;;;;;;10.55;4.40;;;8.40;99.90;;;;;;4974505;28;20230;-53
2023/01/30 07:10:05;;;;;;;16.30;7.82;;;8.40;99.90;;;;;;4974543;28;20582;-53
2023/01/30 07:12:30;;;;;;;12.05;5.07;;;8.30;99.90;;;;;;4974339;28;20181;-55
2023/01/30 07:14:56;;;;;;;8.27;3.10;;;8.20;99.90;;;;;;4974266;28;20181;-51
2023/01/30 07:17:22;;;;;;;11.13;4.28;;;8.30;99.90;;;;;;4974412;28;20185;-51
2023/01/30 07:19:48;;;;;;;13.32;3.85;;;8.20;99.90;;;;;;4974311;28;20216;-54
2023/01/30 07:22:15;;;;;;;11.23;4.57;;;8.20;99.90;;;;;;4974274;28;20226;-52
2023/01/30 07:24:41;;;;;;;7.95;3.95;;;8.10;99.90;;;;;;4974422;28;20654;-54
2023/01/30 07:27:09;;;;;;;12.02;3.97;;;8.00;99.90;;;;;;4974355;28;20312;-54
2023/01/30 07:29:36;;;;;;;12.48;4.45;;;7.90;99.90;;;;;;4974239;28;20185;-54
2023/01/30 07:32:02;;;;;;;11.43;4.38;;;7.80;99.90;;;;;;4976036;28;20174;-55
2023/01/30 07:34:28;;;;;;;11.07;4.40;;;7.70;99.90;;;;;;4978086;28;20648;-51
2023/01/30 07:36:53;;;;;;;15.40;4.28;;;7.70;99.90;;;;;;4978141;28;20264;-54
2023/01/30 07:39:19;;;;;;;17.58;4.18;;;7.70;99.90;;;;;;4977982;28;20180;-54
2023/01/30 07:41:44;;;;;;;10.82;4.78;;;7.60;99.90;;;;;;4977928;28;20234;-55
2023/01/30 07:44:11;;;;;;;12.70;4.57;;;7.60;99.90;;;;;;4977722;28;20607;-53
2023/01/30 07:46:37;;;;;;;11.55;4.65;;;7.60;99.90;;;;;;4977947;28;20177;-51
2023/01/30 07:49:04;;;;;;;9.15;3.90;;;7.60;99.90;;;;;;4977935;28;20265;-53
2023/01/30 07:51:30;;;;;;;11.25;4.53;;;7.70;99.90;;;;;;4977833;28;20186;-54
2023/01/30 07:53:56;;;;;;;13.30;4.70;;;7.70;99.90;;;;;;4977731;28;20178;-53
2023/01/30 07:56:22;;;;;;;16.17;4.65;;;7.80;99.90;;;;;;4977714;28;20516;-54
2023/01/30 07:58:48;;;;;;;9.95;4.85;;;7.90;99.90;;;;;;4977472;28;20185;-53
2023/01/30 08:01:14;;;;;;;13.10;4.55;;;7.90;99.90;;;;;;4977712;28;20202;-53
2023/01/30 08:03:40;;;;;;;12.50;4.90;;;7.90;99.90;;;;;;4977672;28;20232;-52
2023/01/30 08:06:06;;;;;;;14.70;5.07;;;7.80;99.90;;;;;;4977511;28;20193;-51
2023/01/30 08:08:32;;;;;;;12.00;4.43;;;7.90;99.90;;;;;;4977429;28;20177;-54
2023/01/30 08:10:57;;;;;;;10.52;3.70;;;7.80;99.90;;;;;;4977369;28;20200;-52
2023/01/30 08:13:23;;;;;;;11.13;4.68;;;7.80;99.90;;;;;;4977266;28;20185;-54
2023/01/30 08:15:49;;;;;;;15.00;4.95;;;7.80;99.90;;;;;;4977483;28;20177;-54
2023/01/30 08:18:15;;;;;;;15.75;4.22;;;7.80;99.90;;;;;;4977408;28;20177;-53
2023/01/30 08:20:41;;;;;;;14.55;4.78;;;7.80;99.90;;;;;;4977209;28;20214;-52
2023/01/30 08:23:07;;;;;;;14.48;4.38;;;7.60;99.90;;;;;;4975975;28;20186;-55
2023/01/30 08:25:34;;;;;;;12.98;4.45;;;7.70;99.90;;;;;;4977116;28;20549;-55
2023/01/30 08:28:00;;;;;;;10.63;3.35;;;7.70;99.90;;;;;;4977022;28;20185;-53
2023/01/30 08:30:26;;;;;;;16.88;4.38;;;7.60;99.90;;;;;;4977300;28;20280;-53
2023/01/30 08:32:52;;;;;;;12.63;3.42;;;7.70;99.90;;;;;;4977049;28;20225;-54
2023/01/30 08:35:18;;;;;;;15.27;4.20;;;7.60;99.90;;;;;;4976916;28;20186;-53
2023/01/30 08:37:43;;;;;;;13.93;3.65;;;7.70;99.90;;;;;;4976799;28;20582;-53
2023/01/30 08:40:10;;;;;;;12.80;2.97;;;7.80;99.90;;;;;;4976825;28;20298;-52
2023/01/30 08:42:35;;;;;;;15.32;3.83;;;7.80;99.90;;;;;;4976293;28;20550;-54
2023/01/30 08:45:02;;;;;;;14.00;3.25;;;7.70;99.90;;;;;;4976372;28;20277;-51
2023/01/30 08:47:28;;;;;;;12.05;4.00;;;7.70;99.90;;;;;;4976818;28;20547;-51
2023/01/30 08:49:53;;;;;;;17.38;3.95;;;7.70;99.90;;;;;;4976854;28;20182;-54
2023/01/30 08:52:19;;;;;;;11.63;3.88;;;7.80;99.90;;;;;;4976775;28;20228;-56
2023/01/30 08:54:46;;;;;;;13.50;4.43;;;7.70;99.90;;;;;;4976604;28;20583;-52
2023/01/30 08:57:13;;;;;;;14.65;3.65;;;7.80;99.90;;;;;;4976435;28;20176;-52
2023/01/30 08:59:39;;;;;;;16.08;4.07;;;7.90;99.90;;;;;;4976623;28;20320;-54
2023/01/30 09:02:07;;;;;;;14.38;3.65;;;7.90;99.90;;;;;;4976632;28;20265;-53
2023/01/30 09:04:33;;;;;;;17.15;4.65;;;8.00;99.90;;;;;;4976756;28;20178;-58
2023/01/30 09:06:59;;;;;;;14.73;4.22;;;8.00;99.90;;;;;;4976431;28;20181;-53
2023/01/30 09:09:24;;;;;;;11.57;4.10;;;8.00;99.90;;;;;;4976274;28;20188;-54
2023/01/30 09:11:50;;;;;;;14.25;4.07;;;8.00;99.90;;;;;;4976331;28;20627;-54
2023/01/30 09:14:18;;;;;;;14.88;4.13;;;8.10;99.90;;;;;;4976342;28;20638;-52
2023/01/30 09:16:54;;;;;;;19.70;3.90;;;8.20;99.90;;;;;;4976487;28;20268;-51
2023/01/30 09:19:21;;;;;;;11.73;3.40;;;8.20;99.90;;;;;;4976049;28;20571;-54
2023/01/30 09:21:49;;;;;;;16.92;3.88;;;8.20;99.90;;;;;;4975959;28;20308;-53
2023/01/30 09:24:14;;;;;;;18.33;4.38;;;8.20;99.90;;;;;;4975853;28;20310;-53
2023/01/30 09:26:43;;;;;;;15.45;4.72;;;8.30;99.90;;;;;;4975975;28;20218;-54
2023/01/30 09:29:10;;;;;;;16.33;4.63;;;8.20;99.90;;;;;;4975979;28;20253;-51
2023/01/30 09:31:36;;;;;;;14.23;3.85;;;8.30;99.90;;;;;;4975969;28;20193;-51
2023/01/30 09:34:02;;;;;;;18.25;4.45;;;8.30;99.90;;;;;;4975812;28;20265;-52
2023/01/30 09:36:28;;;;;;;16.48;4.47;;;8.40;99.90;;;;;;4975907;28;20174;-52
2023/01/30 09:38:53;;;;;;;15.98;4.68;;;8.50;99.90;;;;;;4975682;28;20280;-54
2023/01/30 09:41:57;;;;;;;11.45;3.92;;;8.50;99.90;;;;;;4976179;28;20213;-54
2023/01/30 09:44:54;;;;;;;12.43;3.95;;;8.50;99.90;;;;;;4975718;28;20190;-52
2023/01/30 09:47:32;;;;;;;14.18;4.15;;;8.70;99.90;;;;;;4975603;28;20170;-54
2023/01/30 09:50:21;;;;;;;16.00;3.88;;;8.60;99.90;;;;;;4975792;28;20215;-52
2023/01/30 09:53:26;;;;;;;15.38;4.30;;;8.50;99.90;;;;;;4965519;28;20546;-50
2023/01/30 09:55:51;;;;;;;14.82;3.70;;;8.60;99.90;;;;;;4974965;28;20190;-51
2023/01/30 09:58:23;;;;;;;15.30;4.22;;;8.70;99.90;;;;;;4975625;28;20177;-53
2023/01/30 10:00:53;;;;;;;12.82;3.70;;;8.70;99.90;;;;;;4975155;28;20670;-53
2023/01/30 10:03:32;;;;;;;16.42;4.05;;;8.70;99.90;;;;;;4975133;28;20642;-54
2023/01/30 10:06:01;;;;;;;12.63;3.38;;;8.70;99.90;;;;;;4975235;28;20201;-53
2023/01/30 10:08:48;;;;;;;14.90;4.47;;;8.70;99.90;;;;;;4975480;28;20623;-54
2023/01/30 10:11:50;;;;;;;17.10;4.43;;;8.80;99.90;;;;;;4975387;28;20173;-53
2023/01/30 10:14:38;;;;;;;11.00;3.28;;;8.80;99.90;;;;;;4975502;28;20177;-54
2023/01/30 10:17:30;;;;;;;12.85;3.85;;;8.80;99.90;;;;;;4975321;28;20658;-54
2023/01/30 10:20:14;;;;;;;13.73;3.25;;;8.90;99.90;;;;;;4975008;28;20212;-52
2023/01/30 10:22:53;;;;;;;17.98;4.38;;;8.90;99.90;;;;;;4974949;28;20178;-51
2023/01/30 10:25:42;;;;;;;12.90;3.95;;;8.90;99.90;;;;;;4974939;28;20222;-52
2023/01/30 10:28:55;;;;;;;11.52;3.88;;;9.00;99.90;;;;;;4975265;28;20187;-53
2023/01/30 10:31:25;;;;;;;15.30;3.92;;;9.10;99.90;;;;;;4975020;28;20182;-53
2023/01/30 10:34:08;;;;;;;12.32;3.80;;;9.10;99.90;;;;;;4974890;28;20539;-51
2023/01/30 10:36:47;;;;;;;15.52;4.05;;;9.20;99.90;;;;;;4974971;28;20189;-52
2023/01/30 10:39:27;;;;;;;14.68;4.35;;;9.10;99.90;;;;;;4974757;28;20166;-52
2023/01/30 10:42:07;;;;;;;12.55;3.90;;;9.00;99.90;;;;;;4974873;28;20212;-53
2023/01/30 10:44:33;;;;;;;15.60;4.53;;;9.20;99.90;;;;;;4974789;28;20706;-53
2023/01/30 10:47:08;;;;;;;13.10;4.28;;;9.30;99.90;;;;;;4974680;28;20178;-53
2023/01/30 10:49:50;;;;;;;15.75;3.90;;;9.20;99.90;;;;;;4974561;28;20268;-51
2023/01/30 10:52:33;;;;;;;10.73;3.70;;;9.30;99.90;;;;;;4974744;28;20639;-53
2023/01/30 10:55:34;;;;;;;15.20;4.20;;;9.20;99.90;;;;;;4974957;28;20567;-52
2023/01/30 10:58:25;;;;;;;13.25;3.80;;;9.20;99.90;;;;;;4974519;28;20232;-54
2023/01/30 11:01:06;;;;;;;13.20;3.95;;;9.30;99.90;;;;;;4974585;28;20209;-54
2023/01/30 11:03:55;;;;;;;13.57;4.50;;;9.30;99.90;;;;;;4974533;28;20177;-55
2023/01/30 11:06:25;;;;;;;12.07;4.22;;;9.40;99.90;;;;;;4976031;28;20181;-51
2023/01/30 11:08:52;;;;;;;18.48;4.25;;;9.50;99.90;;;;;;4980779;28;20177;-53
2023/01/30 11:11:32;;;;;;;14.13;4.30;;;9.50;99.90;;;;;;4980996;28;20492;-51
2023/01/30 11:14:06;;;;;;;12.75;4.22;;;9.60;99.90;;;;;;4981097;28;20570;-53
2023/01/30 11:16:42;;;;;;;17.58;4.07;;;9.80;99.90;;;;;;4980832;28;20189;-53
2023/01/30 11:19:08;;;;;;;15.00;4.40;;;9.90;99.90;;;;;;4980781;28;20225;-54
2023/01/30 11:21:35;;;;;;;15.93;4.38;;;10.10;99.90;;;;;;4980718;28;20229;-51
2023/01/30 11:24:15;;;;;;;15.48;4.45;;;10.10;99.90;;;;;;4980880;28;20193;-53
2023/01/30 11:26:41;;;;;;;16.23;4.13;;;10.30;99.90;;;;;;4980881;28;20647;-53
2023/01/30 11:29:29;;;;;;;14.38;4.05;;;10.50;99.90;;;;;;4980792;28;20178;-55
2023/01/30 11:31:55;;;;;;;12.70;3.67;;;10.60;99.90;;;;;;4980942;28;20194;-53
2023/01/30 11:34:23;;;;;;;11.93;3.60;;;10.50;99.90;;;;;;4980747;28;20661;-54
2023/01/30 11:36:49;;;;;;;15.73;4.40;;;10.40;99.90;;;;;;4980785;28;20182;-52
2023/01/30 11:39:16;;;;;;;16.75;4.40;;;10.10;99.90;;;;;;4979460;28;20209;-53
2023/01/30 11:42:03;;;;;;;17.52;5.10;;;9.90;99.90;;;;;;4980803;28;20583;-54
2023/01/30 11:44:36;;;;;;;15.15;4.75;;;9.90;99.90;;;;;;4980750;28;20181;-51
2023/01/30 11:47:19;;;;;;;14.20;4.75;;;9.70;99.90;;;;;;4980685;28;20192;-54
2023/01/30 11:49:51;;;;;;;13.23;4.00;;;9.90;99.90;;;;;;4980680;28;20190;-54
2023/01/30 11:52:21;;;;;;;16.98;4.68;;;10.20;99.90;;;;;;4980634;28;20215;-53
2023/01/30 11:54:48;;;;;;;14.73;4.35;;;10.30;99.90;;;;;;4980619;28;20198;-54
2023/01/30 11:57:16;;;;;;;13.27;3.92;;;10.10;99.90;;;;;;4980920;28;20592;-52
2023/01/30 11:59:52;;;;;;;15.90;4.15;;;9.80;99.90;;;;;;4980582;28;20220;-53
2023/01/30 12:02:31;;;;;;;13.10;4.88;;;9.60;99.90;;;;;;4980482;28;20209;-54
2023/01/30 12:05:07;;;;;;;15.80;4.50;;;9.60;99.90;;;;;;4980452;28;20654;-51
2023/01/30 12:07:35;;;;;;;16.02;4.70;;;9.90;99.90;;;;;;4980599;28;20208;-54
2023/01/30 12:10:28;;;;;;;11.13;4.10;;;10.00;99.90;;;;;;4981097;28;20181;-55
2023/01/30 12:13:12;;;;;;;16.88;4.85;;;9.90;99.90;;;;;;4980841;28;20170;-54
2023/01/30 12:15:38;;;;;;;12.77;4.32;;;9.60;99.90;;;;;;4980275;28;20515;-54
2023/01/30 12:18:21;;;;;;;11.52;4.25;;;9.70;99.90;;;;;;4978119;28;20182;-54
2023/01/30 12:20:53;;;;;;;13.48;4.47;;;9.90;99.90;;;;;;4977359;28;20233;-53
2023/01/30 12:23:38;;;;;;;11.20;4.45;;;9.80;99.90;;;;;;4976934;28;20636;-55
2023/01/30 12:26:15;;;;;;;16.67;4.40;;;9.70;99.90;;;;;;4977450;28;20264;-52
2023/01/30 12:28:52;;;;;;;14.25;4.07;;;9.70;99.90;;;;;;4977439;28;20178;-53
2023/01/30 12:31:23;;;;;;;11.63;3.90;;;9.50;99.90;;;;;;4977167;28;20638;-53
2023/01/30 12:33:49;;;;;;;18.45;4.97;;;9.60;99.90;;;;;;4977043;28;20174;-52
2023/01/30 12:36:23;;;;;;;12.48;4.40;;;9.60;99.90;;;;;;4976885;28;20194;-53
2023/01/30 12:39:23;;;;;;;15.25;4.53;;;9.50;99.90;;;;;;4977043;28;20705;-54
2023/01/30 12:42:13;;;;;;;16.00;4.07;;;9.10;99.90;;;;;;4977052;28;20221;-55
2023/01/30 12:44:48;;;;;;;14.45;4.07;;;9.20;99.90;;;;;;4976804;28;20170;-52
2023/01/30 12:47:32;;;;;;;15.50;4.65;;;9.30;99.90;;;;;;4976887;28;20173;-53
2023/01/30 12:50:05;;;;;;;20.95;4.53;;;9.40;99.90;;;;;;4976977;28;20178;-53
2023/01/30 12:53:05;;;;;;;15.95;4.43;;;9.40;99.90;;;;;;4976735;28;20185;-54
2023/01/30 12:55:43;;;;;;;15.20;4.85;;;9.10;99.90;;;;;;4977153;28;20216;-56
2023/01/30 12:58:24;;;;;;;14.55;4.88;;;9.10;99.90;;;;;;4976692;28;20705;-55
2023/01/30 13:01:05;;;;;;;15.50;4.47;;;9.10;99.90;;;;;;4976384;28;20217;-53
2023/01/30 13:04:03;;;;;;;16.35;4.40;;;9.20;99.90;;;;;;4976594;28;20261;-53
2023/01/30 13:07:10;;;;;;;12.77;4.10;;;9.20;99.90;;;;;;4967996;28;20271;-53
2023/01/30 13:09:46;;;;;;;16.67;4.97;;;9.30;99.90;;;;;;4966231;28;20190;-52
2023/01/30 13:12:31;;;;;;;15.50;4.18;;;9.20;99.90;;;;;;4976496;28;20225;-53